Genesis Valiant — WDG9348 — position and weather

sailwx.info

Track history (hours):
 
Tides and Currents Weather Stations Pressure Air Temp Water Temp Dewpoint Dewpoint Depression Visibility Wind Speed Wind Dir Waves Ship Positions

Genesis Valiant

Owner: Genesis Marine, LLC, Houston, TX. More information available from US FCC via Universal Licensing System and Coast Guard Vessel Documentation Center.

Last reported at 2018-May-23 20:22 UTC. Time now 2018-May-23 22:16 UTC.
Position N 39°24' W 074°07'.

Length 30 m; draft 5.8 m.

Type: Towing. MMSI: 338495000.

Date/timePositionNaut miles runAvg speedWind from/ knotsBaromVisibWave heightAir tempDewpointWater temp
2018-May-23 20:22N 39°24' W 074°07'3 6.8
2018-May-23 19:57N 39°27' W 074°05'3 6.8
2018-May-23 19:28N 39°30' W 074°03'4 6.9
2018-May-23 18:55N 39°33' W 074°01'3 6.9
2018-May-23 18:30N 39°36' W 073°60'4 6.9
2018-May-23 17:59N 39°39' W 073°58'3 6.9
2018-May-23 17:30N 39°42' W 073°57'44 6.8
2018-May-23 11:01N 40°27' W 073°56'0 8.7
2018-May-23 11:00N 40°27' W 073°56'17 2.5
2018-May-23 04:22N 40°38' W 074°12'3 8.8
2018-May-23 04:00N 40°39' W 074°08'4 8.7
2018-May-23 03:30N 40°39' W 074°02'2 4.0
2018-May-23 03:00N 40°40' W 074°00'0 0.0
2018-May-23 02:29N 40°40' W 074°00'0 0.0
2018-May-23 01:59N 40°40' W 074°00'0 0.0
2018-May-23 01:29N 40°40' W 074°00'0 0.0
2018-May-23 00:56N 40°40' W 074°00'0 0.0
2018-May-23 00:29N 40°40' W 074°00'0 0.0
2018-May-22 23:59N 40°40' W 074°00'0 0.0
2018-May-22 23:26N 40°40' W 074°00'0 0.0
2018-May-22 22:59N 40°40' W 074°00'0 0.0
2018-May-22 22:29N 40°40' W 074°00'0 0.0
2018-May-22 21:59N 40°40' W 074°00'0 0.0
2018-May-22 21:29N 40°40' W 074°00'0 0.0
2018-May-22 20:59N 40°40' W 074°00'0 0.0
2018-May-22 20:29N 40°40' W 074°00'0 0.0
2018-May-22 19:59N 40°40' W 074°00'0 0.0
2018-May-22 19:29N 40°40' W 074°00'0 0.0
2018-May-22 18:59N 40°40' W 074°00'0 0.0
2018-May-22 18:26N 40°40' W 074°00'0 0.1
2018-May-22 17:59N 40°40' W 074°00'0 0.1
2018-May-22 17:29N 40°40' W 074°00'0 0.0
2018-May-22 16:59N 40°40' W 074°00'0 0.0
2018-May-22 16:29N 40°40' W 074°00'0 0.0
2018-May-22 15:59N 40°40' W 074°00'0 0.0
2018-May-22 15:29N 40°40' W 074°00'0 0.0
2018-May-22 14:59N 40°40' W 074°00'0 0.0
2018-May-22 14:30N 40°40' W 074°00'3 5.1
2018-May-22 14:01N 40°39' W 074°03'5 9.3
2018-May-22 13:30N 40°39' W 074°09'3 6.2
2018-May-22 12:57N 40°36' W 074°12'3 6.5
2018-May-22 12:30N 40°34' W 074°14'0 0.2
2018-May-22 12:00N 40°33' W 074°14'2 3.6
2018-May-22 11:30N 40°32' W 074°15'2 4.7
2018-May-22 11:00N 40°30' W 074°13'4 6.3
2018-May-22 10:26N 40°30' W 074°09'1 1.3
2018-May-22 09:53N 40°29' W 074°08'10 5.7
2018-May-22 08:12N 40°27' W 073°56'5 7.6
2018-May-22 07:29N 40°22' W 073°53'4 8.0
2018-May-22 07:00N 40°18' W 073°53'4 8.1
2018-May-22 06:30N 40°14' W 073°53'4 8.3
2018-May-22 06:00N 40°09' W 073°52'4 8.6
2018-May-22 05:31N 40°05' W 073°53'4 8.7
2018-May-22 05:00N 40°01' W 073°53'4 8.7
2018-May-22 04:30N 39°57' W 073°55'4 8.5
2018-May-22 04:00N 39°52' W 073°55'4 8.8
2018-May-22 03:30N 39°48' W 073°55'4 8.9
2018-May-22 03:00N 39°44' W 073°56'4 8.8
2018-May-22 02:30N 39°40' W 073°58'4 8.7
2018-May-22 02:00N 39°35' W 074°00'4 8.5
2018-May-22 01:30N 39°31' W 074°02'4 8.6
2018-May-22 01:00N 39°27' W 074°04'5 8.7
2018-May-22 00:28N 39°23' W 074°06'4 8.7
2018-May-22 00:00N 39°20' W 074°10'5 8.7
2018-May-21 23:27N 39°18' W 074°15'46 8.0
2018-May-21 17:42N 38°50' W 075°03'2 8.1
2018-May-21 17:29N 38°52' W 075°03'4 7.1
2018-May-21 16:59N 38°55' W 075°05'3 6.9
2018-May-21 16:30N 38°58' W 075°07'4 7.3
2018-May-21 16:00N 39°02' W 075°09'4 7.3
2018-May-21 15:30N 39°05' W 075°11'4 8.5
2018-May-21 15:00N 39°08' W 075°14'5 9.5
2018-May-21 14:31N 39°13' W 075°17'510.9
2018-May-21 14:00N 39°17' W 075°21'611.8
2018-May-21 13:30N 39°21' W 075°27'611.7
2018-May-21 13:01N 39°26' W 075°32'4 8.8
2018-May-21 12:31N 39°30' W 075°33'0 0.4
2018-May-21 12:00N 39°30' W 075°33'0 0.4
2018-May-21 11:31N 39°30' W 075°33'4 8.7
2018-May-21 11:00N 39°35' W 075°34'1 2.3
2018-May-21 10:30N 39°35' W 075°36'0 0.0
2018-May-21 09:58N 39°35' W 075°36'0 0.0
2018-May-21 09:28N 39°35' W 075°36'0 0.0
2018-May-21 08:58N 39°35' W 075°36'0 0.0
2018-May-21 08:28N 39°35' W 075°36'0 0.0
2018-May-21 07:58N 39°35' W 075°36'0 0.0
2018-May-21 07:28N 39°35' W 075°36'0 0.0
2018-May-21 06:58N 39°35' W 075°36'0 0.0
2018-May-21 06:28N 39°35' W 075°36'0 0.0
2018-May-21 05:58N 39°35' W 075°36'0 0.0
2018-May-21 05:28N 39°35' W 075°36'0 0.0
2018-May-21 04:58N 39°35' W 075°36'0 0.0
2018-May-21 04:28N 39°35' W 075°36'0 0.0
2018-May-21 03:58N 39°35' W 075°36'0 0.0
2018-May-21 03:28N 39°35' W 075°36'0 0.0
2018-May-21 02:58N 39°35' W 075°36'0 0.0
2018-May-21 02:28N 39°35' W 075°36'0 0.0
2018-May-21 01:58N 39°35' W 075°36'0 0.0
2018-May-21 01:28N 39°35' W 075°36'0 0.0
2018-May-21 00:58N 39°35' W 075°36'0 0.0
2018-May-21 00:28N 39°35' W 075°36'0 0.0
2018-May-20 23:58N 39°35' W 075°36'0 0.0
2018-May-20 23:28N 39°35' W 075°36'0 0.0
2018-May-20 22:58N 39°35' W 075°36'0 0.0
2018-May-20 22:28N 39°35' W 075°36'0 0.0
2018-May-20 21:58N 39°35' W 075°36'0 0.0
2018-May-20 21:28N 39°35' W 075°36'0 0.0
2018-May-20 20:58N 39°35' W 075°36'0 0.0
2018-May-20 20:28N 39°35' W 075°36'0 0.0
2018-May-20 20:00N 39°35' W 075°36'0 0.0
2018-May-20 19:30N 39°35' W 075°36'0 0.0
2018-May-20 19:00N 39°35' W 075°36'1 2.1
2018-May-20 18:30N 39°35' W 075°34'3 5.8
2018-May-20 18:00N 39°32' W 075°33'2 3.2
2018-May-20 17:30N 39°30' W 075°33'0 0.0
2018-May-20 17:00N 39°30' W 075°33'0 0.2
2018-May-20 16:29N 39°30' W 075°33'0 0.3
2018-May-20 15:59N 39°30' W 075°33'0 0.1
2018-May-20 15:29N 39°30' W 075°33'0 0.0
2018-May-20 14:59N 39°30' W 075°33'0 0.0
2018-May-20 14:29N 39°30' W 075°33'0 0.0
2018-May-20 13:59N 39°30' W 075°33'0 0.0
2018-May-20 13:29N 39°30' W 075°33'0 0.0
2018-May-20 12:59N 39°30' W 075°33'0 0.0
2018-May-20 12:29N 39°30' W 075°33'0 0.0
2018-May-20 11:59N 39°30' W 075°33'0 0.0
2018-May-20 11:29N 39°30' W 075°33'0 0.0
2018-May-20 10:59N 39°30' W 075°33'0 0.0
2018-May-20 10:29N 39°30' W 075°33'0 0.0
2018-May-20 09:59N 39°30' W 075°33'0 0.2
2018-May-20 09:29N 39°30' W 075°33'0 0.3
2018-May-20 08:59N 39°30' W 075°33'0 0.0
2018-May-20 08:29N 39°30' W 075°33'0 0.0
2018-May-20 07:59N 39°30' W 075°33'0 0.0
2018-May-20 07:29N 39°30' W 075°33'0 0.0
2018-May-20 06:59N 39°30' W 075°33'0 0.0
2018-May-20 06:29N 39°30' W 075°33'0 0.0
2018-May-20 06:01N 39°30' W 075°33'2 3.4
2018-May-20 05:30N 39°32' W 075°33'3 5.3
2018-May-20 05:00N 39°33' W 075°36'4 8.1
2018-May-20 04:30N 39°33' W 075°41'4 8.5
2018-May-20 04:00N 39°32' W 075°46'4 8.5
2018-May-20 03:30N 39°32' W 075°52'510.0
2018-May-20 03:00N 39°29' W 075°57'5 9.6
2018-May-20 02:30N 39°25' W 076°01'4 8.8
2018-May-20 02:00N 39°23' W 076°06'4 8.9
2018-May-20 01:30N 39°20' W 076°11'9 8.1
2018-May-20 00:21N 39°12' W 076°16'3 8.5
2018-May-20 00:00N 39°10' W 076°18'4 7.2
2018-May-19 23:30N 39°10' W 076°23'4 8.5
2018-May-19 23:00N 39°11' W 076°28'4 8.4
2018-May-19 22:30N 39°13' W 076°33'2 3.0
2018-May-19 22:00N 39°13' W 076°35'0 0.0
2018-May-19 21:30N 39°13' W 076°35'0 0.0
2018-May-19 21:00N 39°13' W 076°35'0 0.0
2018-May-19 20:28N 39°13' W 076°35'0 0.0
2018-May-19 19:58N 39°13' W 076°35'0 0.0
2018-May-19 19:28N 39°13' W 076°35'0 0.0
2018-May-19 18:58N 39°13' W 076°35'0 0.0
2018-May-19 18:28N 39°13' W 076°35'0 0.0
2018-May-19 17:58N 39°13' W 076°35'0 0.0
2018-May-19 17:28N 39°13' W 076°35'0 0.0
2018-May-19 16:19N 39°13' W 076°35'0 0.0
2018-May-19 15:49N 39°13' W 076°35'0 0.0
2018-May-19 15:28N 39°13' W 076°35'0 0.0
2018-May-19 14:58N 39°13' W 076°35'0 0.0
2018-May-19 14:28N 39°13' W 076°35'0 0.0
2018-May-19 13:55N 39°13' W 076°35'0 0.0
2018-May-19 13:28N 39°13' W 076°35'0 0.0
2018-May-19 12:58N 39°13' W 076°35'0 0.0
2018-May-19 12:29N 39°13' W 076°35'0 0.7
2018-May-19 12:00N 39°13' W 076°35'2 3.7
2018-May-19 11:30N 39°14' W 076°32'0 0.1
2018-May-19 11:00N 39°14' W 076°32'0 0.0
2018-May-19 10:30N 39°14' W 076°32'0 0.1
2018-May-19 10:00N 39°14' W 076°32'0 0.3
2018-May-19 09:31N 39°14' W 076°32'11 7.3
2018-May-19 07:59N 39°09' W 076°19'6 8.5
2018-May-19 07:19N 39°14' W 076°14'3 8.7
2018-May-19 07:00N 39°17' W 076°14'4 8.5
2018-May-19 06:31N 39°20' W 076°11'4 8.6
2018-May-19 06:01N 39°23' W 076°06'4 8.1
2018-May-19 05:31N 39°25' W 076°02'4 7.0
2018-May-19 05:00N 39°27' W 075°59'4 8.0
2018-May-19 04:31N 39°30' W 075°55'4 8.0
2018-May-19 04:01N 39°32' W 075°51'3 5.1
2018-May-19 03:30N 39°32' W 075°47'3 7.0
2018-May-19 03:01N 39°33' W 075°43'4 7.2
2018-May-19 02:30N 39°33' W 075°38'4 7.1
2018-May-19 02:01N 39°34' W 075°34'1 2.2
2018-May-19 01:30N 39°33' W 075°33'0 0.0
2018-May-19 00:59N 39°33' W 075°33'0 0.0
2018-May-19 00:29N 39°33' W 075°33'0 0.0
2018-May-18 23:59N 39°33' W 075°33'0 0.0
2018-May-18 23:29N 39°33' W 075°33'0 0.1
2018-May-18 23:00N 39°33' W 075°33'2 3.5
2018-May-18 22:30N 39°34' W 075°33'4 8.5
2018-May-18 22:00N 39°39' W 075°33'5 9.0
2018-May-18 21:30N 39°43' W 075°31'4 8.4
2018-May-18 21:00N 39°46' W 075°28'4 7.8
2018-May-18 20:30N 39°49' W 075°24'4 7.0
2018-May-18 20:00N 39°51' W 075°20'3 6.7
2018-May-18 19:30N 39°51' W 075°16'1 1.7
2018-May-18 19:00N 39°51' W 075°15'0 0.0
2018-May-18 18:28N 39°51' W 075°15'0 0.0
2018-May-18 17:58N 39°51' W 075°15'0 0.0
2018-May-18 17:28N 39°51' W 075°15'0 0.0
2018-May-18 16:58N 39°51' W 075°15'0 0.0
2018-May-18 16:28N 39°51' W 075°15'0 0.0
2018-May-18 15:58N 39°51' W 075°15'0 0.0
2018-May-18 15:28N 39°51' W 075°15'0 0.0
2018-May-18 14:58N 39°51' W 075°15'0 0.0
2018-May-18 14:28N 39°51' W 075°15'0 0.0
2018-May-18 13:58N 39°51' W 075°15'0 0.0
2018-May-18 13:28N 39°51' W 075°15'0 0.0
2018-May-18 12:58N 39°51' W 075°15'0 0.0
2018-May-18 12:28N 39°51' W 075°15'0 0.0
2018-May-18 11:58N 39°51' W 075°15'0 0.0
2018-May-18 11:28N 39°51' W 075°15'0 0.0
2018-May-18 10:58N 39°51' W 075°15'0 0.0
2018-May-18 10:28N 39°51' W 075°15'0 0.0
2018-May-18 09:58N 39°51' W 075°15'0 0.0
2018-May-18 09:28N 39°51' W 075°15'0 0.0
2018-May-18 08:58N 39°51' W 075°15'0 0.0
2018-May-18 08:28N 39°51' W 075°15'0 0.0
2018-May-18 07:58N 39°51' W 075°15'0 0.0
2018-May-18 07:28N 39°51' W 075°15'0 0.0
2018-May-18 06:58N 39°51' W 075°15'0 0.0
2018-May-18 06:28N 39°51' W 075°15'0 0.0
2018-May-18 05:58N 39°51' W 075°15'0 0.0
2018-May-18 05:28N 39°51' W 075°15'0 0.0
2018-May-18 04:58N 39°51' W 075°15'0 0.0
2018-May-18 04:28N 39°51' W 075°15'0 0.0
2018-May-18 03:58N 39°51' W 075°15'2 4.9
2018-May-18 03:31N 39°52' W 075°13'4 7.2
2018-May-18 03:00N 39°54' W 075°08'0 0.2
2018-May-18 02:25N 39°54' W 075°08'0 0.0
2018-May-18 01:55N 39°54' W 075°08'0 0.0
2018-May-18 01:28N 39°54' W 075°08'0 0.0
2018-May-18 00:58N 39°54' W 075°08'0 0.0
2018-May-18 00:28N 39°54' W 075°08'0 0.0
2018-May-17 23:58N 39°54' W 075°08'0 0.0
2018-May-17 23:28N 39°54' W 075°08'0 0.0
2018-May-17 22:55N 39°54' W 075°08'0 0.0
2018-May-17 22:28N 39°54' W 075°08'0 0.0
2018-May-17 21:58N 39°54' W 075°08'0 0.0
2018-May-17 21:28N 39°54' W 075°08'0 0.0
2018-May-17 20:58N 39°54' W 075°08'0 0.0
2018-May-17 20:30N 39°54' W 075°08'1 2.9
2018-May-17 20:00N 39°53' W 075°10'2 3.0
2018-May-17 19:30N 39°53' W 075°12'0 0.0
2018-May-17 18:56N 39°53' W 075°12'0 0.0
2018-May-17 18:29N 39°53' W 075°12'0 0.0
2018-May-17 17:59N 39°53' W 075°12'0 0.0
2018-May-17 17:29N 39°53' W 075°12'0 0.0
2018-May-17 16:59N 39°53' W 075°12'0 0.0
2018-May-17 16:29N 39°53' W 075°12'0 0.0
2018-May-17 15:59N 39°54' W 075°12'0 0.0
2018-May-17 15:29N 39°53' W 075°12'0 0.0
2018-May-17 14:59N 39°53' W 075°12'0 0.0
2018-May-17 14:29N 39°53' W 075°12'0 0.0
2018-May-17 13:59N 39°53' W 075°12'0 0.0
2018-May-17 13:29N 39°53' W 075°12'0 0.0
2018-May-17 12:59N 39°53' W 075°12'0 0.0
2018-May-17 12:29N 39°53' W 075°12'0 0.0
2018-May-17 11:59N 39°53' W 075°12'0 0.0
2018-May-17 11:29N 39°53' W 075°12'0 0.0
2018-May-17 10:59N 39°53' W 075°12'0 0.0
2018-May-17 10:29N 39°53' W 075°12'0 0.1
2018-May-17 09:59N 39°54' W 075°12'0 0.0
2018-May-17 09:30N 39°54' W 075°12'1 2.0
2018-May-17 09:01N 39°53' W 075°11'2 3.9
2018-May-17 08:31N 39°54' W 075°08'0 0.1
2018-May-17 08:00N 39°54' W 075°08'3 5.3
2018-May-17 07:29N 39°53' W 075°12'1 1.7
2018-May-17 07:00N 39°52' W 075°12'0 0.0
2018-May-17 06:30N 39°52' W 075°12'0 0.0
2018-May-17 06:00N 39°52' W 075°12'0 0.0
2018-May-17 05:30N 39°52' W 075°12'0 0.0
2018-May-17 05:00N 39°52' W 075°12'0 0.0
2018-May-17 04:27N 39°52' W 075°12'0 0.0
2018-May-17 04:00N 39°52' W 075°12'0 0.1
2018-May-17 03:30N 39°52' W 075°12'0 0.1
2018-May-17 03:00N 39°52' W 075°12'0 0.2
2018-May-17 02:30N 39°52' W 075°13'0 0.1
2018-May-17 01:57N 39°52' W 075°13'0 0.1
2018-May-17 01:30N 39°52' W 075°13'0 0.0
2018-May-17 01:00N 39°52' W 075°13'0 0.0
2018-May-17 00:30N 39°52' W 075°13'0 0.0
2018-May-17 00:00N 39°52' W 075°13'0 0.0
2018-May-16 23:30N 39°52' W 075°13'0 0.0
2018-May-16 23:00N 39°52' W 075°13'0 0.0
2018-May-16 22:30N 39°52' W 075°13'0 0.0
2018-May-16 22:00N 39°52' W 075°13'0 0.0
2018-May-16 21:30N 39°52' W 075°13'0 0.0
2018-May-16 21:00N 39°52' W 075°13'0 0.0
2018-May-16 20:30N 39°52' W 075°13'0 0.0
2018-May-16 20:00N 39°52' W 075°13'0 0.2
2018-May-16 19:30N 39°52' W 075°13'0 0.2
2018-May-16 19:00N 39°52' W 075°12'0 0.0
2018-May-16 18:30N 39°52' W 075°12'0 0.0
2018-May-16 18:00N 39°52' W 075°12'0 0.0
2018-May-16 17:30N 39°52' W 075°12'0 0.0
2018-May-16 17:00N 39°52' W 075°12'1 1.8
2018-May-16 16:30N 39°53' W 075°12'1 1.8
2018-May-16 16:00N 39°52' W 075°12'0 0.1
2018-May-16 15:29N 39°52' W 075°12'0 0.1
2018-May-16 14:59N 39°52' W 075°12'0 0.3
2018-May-16 14:29N 39°52' W 075°13'0 0.0
2018-May-16 13:59N 39°52' W 075°13'0 0.0
2018-May-16 13:29N 39°52' W 075°13'0 0.0
2018-May-16 12:59N 39°52' W 075°13'0 0.0
2018-May-16 12:29N 39°52' W 075°13'0 0.0
2018-May-16 11:59N 39°52' W 075°13'0 0.0
2018-May-16 11:29N 39°52' W 075°13'0 0.0
2018-May-16 10:56N 39°52' W 075°13'0 0.0
2018-May-16 10:29N 39°52' W 075°13'0 0.0
2018-May-16 09:59N 39°52' W 075°13'0 0.0
2018-May-16 09:29N 39°52' W 075°13'0 0.0
2018-May-16 08:59N 39°52' W 075°13'0 0.0
2018-May-16 08:29N 39°52' W 075°13'0 0.1
2018-May-16 07:59N 39°52' W 075°13'0 0.3
2018-May-16 07:29N 39°52' W 075°12'0 0.1
2018-May-16 06:59N 39°52' W 075°12'0 0.0
2018-May-16 06:29N 39°52' W 075°12'0 0.0
2018-May-16 05:59N 39°52' W 075°12'0 0.0
2018-May-16 05:26N 39°52' W 075°12'0 0.0
2018-May-16 04:59N 39°52' W 075°12'0 0.0
2018-May-16 04:29N 39°52' W 075°12'0 0.0
2018-May-16 03:59N 39°52' W 075°12'0 0.0
2018-May-16 03:29N 39°52' W 075°12'0 0.0
2018-May-16 02:59N 39°52' W 075°12'0 0.0
2018-May-16 02:29N 39°52' W 075°12'0 0.0
2018-May-16 01:59N 39°52' W 075°12'0 0.3
2018-May-16 01:29N 39°52' W 075°13'0 0.1
2018-May-16 00:59N 39°52' W 075°13'0 0.1
2018-May-16 00:29N 39°52' W 075°13'0 0.1
2018-May-15 23:59N 39°52' W 075°13'0 0.1
2018-May-15 23:29N 39°52' W 075°13'0 0.2
2018-May-15 22:59N 39°52' W 075°12'0 0.2
2018-May-15 22:29N 39°52' W 075°12'0 0.3
2018-May-15 21:59N 39°52' W 075°13'0 0.1
2018-May-15 21:29N 39°52' W 075°13'0 0.0
2018-May-15 20:59N 39°52' W 075°13'0 0.1
2018-May-15 20:29N 39°52' W 075°13'0 0.2
2018-May-15 19:59N 39°52' W 075°12'0 0.0
2018-May-15 19:29N 39°52' W 075°12'0 0.1
2018-May-15 18:56N 39°52' W 075°12'0 0.1
2018-May-15 18:29N 39°52' W 075°12'0 0.1
2018-May-15 17:56N 39°52' W 075°12'0 0.0
2018-May-15 17:29N 39°52' W 075°12'0 0.1
2018-May-15 16:59N 39°52' W 075°12'0 0.1
2018-May-15 16:29N 39°52' W 075°12'0 0.1
2018-May-15 15:59N 39°52' W 075°12'0 0.1
2018-May-15 15:29N 39°52' W 075°12'0 0.0
2018-May-15 14:59N 39°52' W 075°12'0 0.0
2018-May-15 14:29N 39°52' W 075°12'0 0.0
2018-May-15 13:59N 39°52' W 075°12'0 0.0
2018-May-15 13:29N 39°52' W 075°12'0 0.3
2018-May-15 12:59N 39°52' W 075°13'0 0.1
2018-May-15 12:26N 39°52' W 075°13'0 0.1
2018-May-15 11:58N 39°52' W 075°13'0 0.0
2018-May-15 11:26N 39°52' W 075°13'0 0.0
2018-May-15 10:59N 39°52' W 075°13'0 0.0
2018-May-15 10:30N 39°52' W 075°13'0 0.0
2018-May-15 09:59N 39°52' W 075°13'0 0.0
2018-May-15 09:30N 39°52' W 075°13'0 0.0
2018-May-15 08:59N 39°52' W 075°13'0 0.0
2018-May-15 08:30N 39°52' W 075°13'0 0.0
2018-May-15 08:00N 39°52' W 075°13'0 0.1
2018-May-15 07:29N 39°52' W 075°13'0 0.2
2018-May-15 06:59N 39°52' W 075°13'0 0.1
2018-May-15 06:29N 39°52' W 075°12'0 0.0
2018-May-15 05:59N 39°52' W 075°12'0 0.0
2018-May-15 05:29N 39°52' W 075°12'0 0.0
2018-May-15 04:59N 39°52' W 075°12'0 0.0
2018-May-15 04:29N 39°52' W 075°12'0 0.0
2018-May-15 03:59N 39°52' W 075°12'0 0.0
2018-May-15 03:29N 39°52' W 075°12'0 0.0
2018-May-15 02:59N 39°52' W 075°12'0 0.0
2018-May-15 02:29N 39°52' W 075°12'0 0.0
2018-May-15 01:59N 39°52' W 075°12'0 0.0
2018-May-15 01:29N 39°52' W 075°12'0 0.2
2018-May-15 00:59N 39°52' W 075°13'0 0.2
2018-May-15 00:29N 39°52' W 075°13'0 0.1
2018-May-14 23:59N 39°52' W 075°13'0 0.0
2018-May-14 23:29N 39°52' W 075°13'0 0.1
2018-May-14 22:59N 39°52' W 075°13'0 0.0
2018-May-14 22:29N 39°52' W 075°13'0 0.0
2018-May-14 21:59N 39°52' W 075°13'0 0.0
2018-May-14 21:29N 39°52' W 075°13'0 0.1
2018-May-14 20:59N 39°52' W 075°13'0 0.0
2018-May-14 20:29N 39°52' W 075°13'0 0.0
2018-May-14 19:59N 39°52' W 075°13'0 0.0
2018-May-14 19:29N 39°52' W 075°13'0 0.1
2018-May-14 18:59N 39°52' W 075°13'0 0.3
2018-May-14 18:29N 39°52' W 075°12'0 0.1
2018-May-14 17:59N 39°52' W 075°12'0 0.0
2018-May-14 17:29N 39°52' W 075°12'0 0.0
2018-May-14 16:59N 39°52' W 075°12'0 0.0
2018-May-14 16:29N 39°52' W 075°12'0 0.0
2018-May-14 15:59N 39°52' W 075°12'0 0.0
2018-May-14 15:29N 39°52' W 075°12'0 0.0
2018-May-14 14:59N 39°52' W 075°12'0 0.0
2018-May-14 14:29N 39°52' W 075°12'0 0.0
2018-May-14 13:59N 39°52' W 075°12'0 0.0
2018-May-14 13:29N 39°52' W 075°12'0 0.3
2018-May-14 12:59N 39°52' W 075°13'0 0.1
2018-May-14 11:47N 39°52' W 075°13'0 0.0
2018-May-14 11:26N 39°52' W 075°13'0 0.0
2018-May-14 10:02N 39°52' W 075°13'0 0.0
2018-May-14 07:44N 39°52' W 075°13'0 0.0
2018-May-14 07:26N 39°52' W 075°13'0 0.0
2018-May-14 06:56N 39°52' W 075°13'0 0.1
2018-May-14 00:42N 39°52' W 075°13'  
Track history (hours):
 
Tides and Currents Weather Stations Pressure Air Temp Water Temp Dewpoint Dewpoint Depression Visibility Wind Speed Wind Dir Waves Ship Positions

Genesis Valiant

Owner: Genesis Marine, LLC, Houston, TX. More information available from US FCC via Universal Licensing System and Coast Guard Vessel Documentation Center.

Last reported at 2018-May-23 20:22 UTC. Time now 2018-May-23 22:16 UTC.
Position N 39°24' W 074°07'.

Length 30 m; draft 5.8 m.

Type: Towing. MMSI: 338495000.

Date/timePositionNaut miles runAvg speedWind from/ knotsBaromVisibWave heightAir tempDewpointWater temp
2018-May-23 20:22N 39°24' W 074°07'3 6.8
2018-May-23 19:57N 39°27' W 074°05'3 6.8
2018-May-23 19:28N 39°30' W 074°03'4 6.9
2018-May-23 18:55N 39°33' W 074°01'3 6.9
2018-May-23 18:30N 39°36' W 073°60'4 6.9
2018-May-23 17:59N 39°39' W 073°58'3 6.9
2018-May-23 17:30N 39°42' W 073°57'44 6.8
2018-May-23 11:01N 40°27' W 073°56'0 8.7
2018-May-23 11:00N 40°27' W 073°56'17 2.5
2018-May-23 04:22N 40°38' W 074°12'3 8.8
2018-May-23 04:00N 40°39' W 074°08'4 8.7
2018-May-23 03:30N 40°39' W 074°02'2 4.0
2018-May-23 03:00N 40°40' W 074°00'0 0.0
2018-May-23 02:29N 40°40' W 074°00'0 0.0
2018-May-23 01:59N 40°40' W 074°00'0 0.0
2018-May-23 01:29N 40°40' W 074°00'0 0.0
2018-May-23 00:56N 40°40' W 074°00'0 0.0
2018-May-23 00:29N 40°40' W 074°00'0 0.0
2018-May-22 23:59N 40°40' W 074°00'0 0.0
2018-May-22 23:26N 40°40' W 074°00'0 0.0
2018-May-22 22:59N 40°40' W 074°00'0 0.0
2018-May-22 22:29N 40°40' W 074°00'0 0.0
2018-May-22 21:59N 40°40' W 074°00'0 0.0
2018-May-22 21:29N 40°40' W 074°00'0 0.0
2018-May-22 20:59N 40°40' W 074°00'0 0.0
2018-May-22 20:29N 40°40' W 074°00'0 0.0
2018-May-22 19:59N 40°40' W 074°00'0 0.0
2018-May-22 19:29N 40°40' W 074°00'0 0.0
2018-May-22 18:59N 40°40' W 074°00'0 0.0
2018-May-22 18:26N 40°40' W 074°00'0 0.1
2018-May-22 17:59N 40°40' W 074°00'0 0.1
2018-May-22 17:29N 40°40' W 074°00'0 0.0
2018-May-22 16:59N 40°40' W 074°00'0 0.0
2018-May-22 16:29N 40°40' W 074°00'0 0.0
2018-May-22 15:59N 40°40' W 074°00'0 0.0
2018-May-22 15:29N 40°40' W 074°00'0 0.0
2018-May-22 14:59N 40°40' W 074°00'0 0.0
2018-May-22 14:30N 40°40' W 074°00'3 5.1
2018-May-22 14:01N 40°39' W 074°03'5 9.3
2018-May-22 13:30N 40°39' W 074°09'3 6.2
2018-May-22 12:57N 40°36' W 074°12'3 6.5
2018-May-22 12:30N 40°34' W 074°14'0 0.2
2018-May-22 12:00N 40°33' W 074°14'2 3.6
2018-May-22 11:30N 40°32' W 074°15'2 4.7
2018-May-22 11:00N 40°30' W 074°13'4 6.3
2018-May-22 10:26N 40°30' W 074°09'1 1.3
2018-May-22 09:53N 40°29' W 074°08'10 5.7
2018-May-22 08:12N 40°27' W 073°56'5 7.6
2018-May-22 07:29N 40°22' W 073°53'4 8.0
2018-May-22 07:00N 40°18' W 073°53'4 8.1
2018-May-22 06:30N 40°14' W 073°53'4 8.3
2018-May-22 06:00N 40°09' W 073°52'4 8.6
2018-May-22 05:31N 40°05' W 073°53'4 8.7
2018-May-22 05:00N 40°01' W 073°53'4 8.7
2018-May-22 04:30N 39°57' W 073°55'4 8.5
2018-May-22 04:00N 39°52' W 073°55'4 8.8
2018-May-22 03:30N 39°48' W 073°55'4 8.9
2018-May-22 03:00N 39°44' W 073°56'4 8.8
2018-May-22 02:30N 39°40' W 073°58'4 8.7
2018-May-22 02:00N 39°35' W 074°00'4 8.5
2018-May-22 01:30N 39°31' W 074°02'4 8.6
2018-May-22 01:00N 39°27' W 074°04'5 8.7
2018-May-22 00:28N 39°23' W 074°06'4 8.7
2018-May-22 00:00N 39°20' W 074°10'5 8.7
2018-May-21 23:27N 39°18' W 074°15'46 8.0
2018-May-21 17:42N 38°50' W 075°03'2 8.1
2018-May-21 17:29N 38°52' W 075°03'4 7.1
2018-May-21 16:59N 38°55' W 075°05'3 6.9
2018-May-21 16:30N 38°58' W 075°07'4 7.3
2018-May-21 16:00N 39°02' W 075°09'4 7.3
2018-May-21 15:30N 39°05' W 075°11'4 8.5
2018-May-21 15:00N 39°08' W 075°14'5 9.5
2018-May-21 14:31N 39°13' W 075°17'510.9
2018-May-21 14:00N 39°17' W 075°21'611.8
2018-May-21 13:30N 39°21' W 075°27'611.7
2018-May-21 13:01N 39°26' W 075°32'4 8.8
2018-May-21 12:31N 39°30' W 075°33'0 0.4
2018-May-21 12:00N 39°30' W 075°33'0 0.4
2018-May-21 11:31N 39°30' W 075°33'4 8.7
2018-May-21 11:00N 39°35' W 075°34'1 2.3
2018-May-21 10:30N 39°35' W 075°36'0 0.0
2018-May-21 09:58N 39°35' W 075°36'0 0.0
2018-May-21 09:28N 39°35' W 075°36'0 0.0
2018-May-21 08:58N 39°35' W 075°36'0 0.0
2018-May-21 08:28N 39°35' W 075°36'0 0.0
2018-May-21 07:58N 39°35' W 075°36'0 0.0
2018-May-21 07:28N 39°35' W 075°36'0 0.0
2018-May-21 06:58N 39°35' W 075°36'0 0.0
2018-May-21 06:28N 39°35' W 075°36'0 0.0
2018-May-21 05:58N 39°35' W 075°36'0 0.0
2018-May-21 05:28N 39°35' W 075°36'0 0.0
2018-May-21 04:58N 39°35' W 075°36'0 0.0
2018-May-21 04:28N 39°35' W 075°36'0 0.0
2018-May-21 03:58N 39°35' W 075°36'0 0.0
2018-May-21 03:28N 39°35' W 075°36'0 0.0
2018-May-21 02:58N 39°35' W 075°36'0 0.0
2018-May-21 02:28N 39°35' W 075°36'0 0.0
2018-May-21 01:58N 39°35' W 075°36'0 0.0
2018-May-21 01:28N 39°35' W 075°36'0 0.0
2018-May-21 00:58N 39°35' W 075°36'0 0.0
2018-May-21 00:28N 39°35' W 075°36'0 0.0
2018-May-20 23:58N 39°35' W 075°36'0 0.0
2018-May-20 23:28N 39°35' W 075°36'0 0.0
2018-May-20 22:58N 39°35' W 075°36'0 0.0
2018-May-20 22:28N 39°35' W 075°36'0 0.0
2018-May-20 21:58N 39°35' W 075°36'0 0.0
2018-May-20 21:28N 39°35' W 075°36'0 0.0
2018-May-20 20:58N 39°35' W 075°36'0 0.0
2018-May-20 20:28N 39°35' W 075°36'0 0.0
2018-May-20 20:00N 39°35' W 075°36'0 0.0
2018-May-20 19:30N 39°35' W 075°36'0 0.0
2018-May-20 19:00N 39°35' W 075°36'1 2.1
2018-May-20 18:30N 39°35' W 075°34'3 5.8
2018-May-20 18:00N 39°32' W 075°33'2 3.2
2018-May-20 17:30N 39°30' W 075°33'0 0.0
2018-May-20 17:00N 39°30' W 075°33'0 0.2
2018-May-20 16:29N 39°30' W 075°33'0 0.3
2018-May-20 15:59N 39°30' W 075°33'0 0.1
2018-May-20 15:29N 39°30' W 075°33'0 0.0
2018-May-20 14:59N 39°30' W 075°33'0 0.0
2018-May-20 14:29N 39°30' W 075°33'0 0.0
2018-May-20 13:59N 39°30' W 075°33'0 0.0
2018-May-20 13:29N 39°30' W 075°33'0 0.0
2018-May-20 12:59N 39°30' W 075°33'0 0.0
2018-May-20 12:29N 39°30' W 075°33'0 0.0
2018-May-20 11:59N 39°30' W 075°33'0 0.0
2018-May-20 11:29N 39°30' W 075°33'0 0.0
2018-May-20 10:59N 39°30' W 075°33'0 0.0
2018-May-20 10:29N 39°30' W 075°33'0 0.0
2018-May-20 09:59N 39°30' W 075°33'0 0.2
2018-May-20 09:29N 39°30' W 075°33'0 0.3
2018-May-20 08:59N 39°30' W 075°33'0 0.0
2018-May-20 08:29N 39°30' W 075°33'0 0.0
2018-May-20 07:59N 39°30' W 075°33'0 0.0
2018-May-20 07:29N 39°30' W 075°33'0 0.0
2018-May-20 06:59N 39°30' W 075°33'0 0.0
2018-May-20 06:29N 39°30' W 075°33'0 0.0
2018-May-20 06:01N 39°30' W 075°33'2 3.4
2018-May-20 05:30N 39°32' W 075°33'3 5.3
2018-May-20 05:00N 39°33' W 075°36'4 8.1
2018-May-20 04:30N 39°33' W 075°41'4 8.5
2018-May-20 04:00N 39°32' W 075°46'4 8.5
2018-May-20 03:30N 39°32' W 075°52'510.0
2018-May-20 03:00N 39°29' W 075°57'5 9.6
2018-May-20 02:30N 39°25' W 076°01'4 8.8
2018-May-20 02:00N 39°23' W 076°06'4 8.9
2018-May-20 01:30N 39°20' W 076°11'9 8.1
2018-May-20 00:21N 39°12' W 076°16'3 8.5
2018-May-20 00:00N 39°10' W 076°18'4 7.2
2018-May-19 23:30N 39°10' W 076°23'4 8.5
2018-May-19 23:00N 39°11' W 076°28'4 8.4
2018-May-19 22:30N 39°13' W 076°33'2 3.0
2018-May-19 22:00N 39°13' W 076°35'0 0.0
2018-May-19 21:30N 39°13' W 076°35'0 0.0
2018-May-19 21:00N 39°13' W 076°35'0 0.0
2018-May-19 20:28N 39°13' W 076°35'0 0.0
2018-May-19 19:58N 39°13' W 076°35'0 0.0
2018-May-19 19:28N 39°13' W 076°35'0 0.0
2018-May-19 18:58N 39°13' W 076°35'0 0.0
2018-May-19 18:28N 39°13' W 076°35'0 0.0
2018-May-19 17:58N 39°13' W 076°35'0 0.0
2018-May-19 17:28N 39°13' W 076°35'0 0.0
2018-May-19 16:19N 39°13' W 076°35'0 0.0
2018-May-19 15:49N 39°13' W 076°35'0 0.0
2018-May-19 15:28N 39°13' W 076°35'0 0.0
2018-May-19 14:58N 39°13' W 076°35'0 0.0
2018-May-19 14:28N 39°13' W 076°35'0 0.0
2018-May-19 13:55N 39°13' W 076°35'0 0.0
2018-May-19 13:28N 39°13' W 076°35'0 0.0
2018-May-19 12:58N 39°13' W 076°35'0 0.0
2018-May-19 12:29N 39°13' W 076°35'0 0.7
2018-May-19 12:00N 39°13' W 076°35'2 3.7
2018-May-19 11:30N 39°14' W 076°32'0 0.1
2018-May-19 11:00N 39°14' W 076°32'0 0.0
2018-May-19 10:30N 39°14' W 076°32'0 0.1
2018-May-19 10:00N 39°14' W 076°32'0 0.3
2018-May-19 09:31N 39°14' W 076°32'11 7.3
2018-May-19 07:59N 39°09' W 076°19'6 8.5
2018-May-19 07:19N 39°14' W 076°14'3 8.7
2018-May-19 07:00N 39°17' W 076°14'4 8.5
2018-May-19 06:31N 39°20' W 076°11'4 8.6
2018-May-19 06:01N 39°23' W 076°06'4 8.1
2018-May-19 05:31N 39°25' W 076°02'4 7.0
2018-May-19 05:00N 39°27' W 075°59'4 8.0
2018-May-19 04:31N 39°30' W 075°55'4 8.0
2018-May-19 04:01N 39°32' W 075°51'3 5.1
2018-May-19 03:30N 39°32' W 075°47'3 7.0
2018-May-19 03:01N 39°33' W 075°43'4 7.2
2018-May-19 02:30N 39°33' W 075°38'4 7.1
2018-May-19 02:01N 39°34' W 075°34'1 2.2
2018-May-19 01:30N 39°33' W 075°33'0 0.0
2018-May-19 00:59N 39°33' W 075°33'0 0.0
2018-May-19 00:29N 39°33' W 075°33'0 0.0
2018-May-18 23:59N 39°33' W 075°33'0 0.0
2018-May-18 23:29N 39°33' W 075°33'0 0.1
2018-May-18 23:00N 39°33' W 075°33'2 3.5
2018-May-18 22:30N 39°34' W 075°33'4 8.5
2018-May-18 22:00N 39°39' W 075°33'5 9.0
2018-May-18 21:30N 39°43' W 075°31'4 8.4
2018-May-18 21:00N 39°46' W 075°28'4 7.8
2018-May-18 20:30N 39°49' W 075°24'4 7.0
2018-May-18 20:00N 39°51' W 075°20'3 6.7
2018-May-18 19:30N 39°51' W 075°16'1 1.7
2018-May-18 19:00N 39°51' W 075°15'0 0.0
2018-May-18 18:28N 39°51' W 075°15'0 0.0
2018-May-18 17:58N 39°51' W 075°15'0 0.0
2018-May-18 17:28N 39°51' W 075°15'0 0.0
2018-May-18 16:58N 39°51' W 075°15'0 0.0
2018-May-18 16:28N 39°51' W 075°15'0 0.0
2018-May-18 15:58N 39°51' W 075°15'0 0.0
2018-May-18 15:28N 39°51' W 075°15'0 0.0
2018-May-18 14:58N 39°51' W 075°15'0 0.0
2018-May-18 14:28N 39°51' W 075°15'0 0.0
2018-May-18 13:58N 39°51' W 075°15'0 0.0
2018-May-18 13:28N 39°51' W 075°15'0 0.0
2018-May-18 12:58N 39°51' W 075°15'0 0.0
2018-May-18 12:28N 39°51' W 075°15'0 0.0
2018-May-18 11:58N 39°51' W 075°15'0 0.0
2018-May-18 11:28N 39°51' W 075°15'0 0.0
2018-May-18 10:58N 39°51' W 075°15'0 0.0
2018-May-18 10:28N 39°51' W 075°15'0 0.0
2018-May-18 09:58N 39°51' W 075°15'0 0.0
2018-May-18 09:28N 39°51' W 075°15'0 0.0
2018-May-18 08:58N 39°51' W 075°15'0 0.0
2018-May-18 08:28N 39°51' W 075°15'0 0.0
2018-May-18 07:58N 39°51' W 075°15'0 0.0
2018-May-18 07:28N 39°51' W 075°15'0 0.0
2018-May-18 06:58N 39°51' W 075°15'0 0.0
2018-May-18 06:28N 39°51' W 075°15'0 0.0
2018-May-18 05:58N 39°51' W 075°15'0 0.0
2018-May-18 05:28N 39°51' W 075°15'0 0.0
2018-May-18 04:58N 39°51' W 075°15'0 0.0
2018-May-18 04:28N 39°51' W 075°15'0 0.0
2018-May-18 03:58N 39°51' W 075°15'2 4.9
2018-May-18 03:31N 39°52' W 075°13'4 7.2
2018-May-18 03:00N 39°54' W 075°08'0 0.2
2018-May-18 02:25N 39°54' W 075°08'0 0.0
2018-May-18 01:55N 39°54' W 075°08'0 0.0
2018-May-18 01:28N 39°54' W 075°08'0 0.0
2018-May-18 00:58N 39°54' W 075°08'0 0.0
2018-May-18 00:28N 39°54' W 075°08'0 0.0
2018-May-17 23:58N 39°54' W 075°08'0 0.0
2018-May-17 23:28N 39°54' W 075°08'0 0.0
2018-May-17 22:55N 39°54' W 075°08'0 0.0
2018-May-17 22:28N 39°54' W 075°08'0 0.0
2018-May-17 21:58N 39°54' W 075°08'0 0.0
2018-May-17 21:28N 39°54' W 075°08'0 0.0
2018-May-17 20:58N 39°54' W 075°08'0 0.0
2018-May-17 20:30N 39°54' W 075°08'1 2.9
2018-May-17 20:00N 39°53' W 075°10'2 3.0
2018-May-17 19:30N 39°53' W 075°12'0 0.0
2018-May-17 18:56N 39°53' W 075°12'0 0.0
2018-May-17 18:29N 39°53' W 075°12'0 0.0
2018-May-17 17:59N 39°53' W 075°12'0 0.0
2018-May-17 17:29N 39°53' W 075°12'0 0.0
2018-May-17 16:59N 39°53' W 075°12'0 0.0
2018-May-17 16:29N 39°53' W 075°12'0 0.0
2018-May-17 15:59N 39°54' W 075°12'0 0.0
2018-May-17 15:29N 39°53' W 075°12'0 0.0
2018-May-17 14:59N 39°53' W 075°12'0 0.0
2018-May-17 14:29N 39°53' W 075°12'0 0.0
2018-May-17 13:59N 39°53' W 075°12'0 0.0
2018-May-17 13:29N 39°53' W 075°12'0 0.0
2018-May-17 12:59N 39°53' W 075°12'0 0.0
2018-May-17 12:29N 39°53' W 075°12'0 0.0
2018-May-17 11:59N 39°53' W 075°12'0 0.0
2018-May-17 11:29N 39°53' W 075°12'0 0.0
2018-May-17 10:59N 39°53' W 075°12'0 0.0
2018-May-17 10:29N 39°53' W 075°12'0 0.1
2018-May-17 09:59N 39°54' W 075°12'0 0.0
2018-May-17 09:30N 39°54' W 075°12'1 2.0
2018-May-17 09:01N 39°53' W 075°11'2 3.9
2018-May-17 08:31N 39°54' W 075°08'0 0.1
2018-May-17 08:00N 39°54' W 075°08'3 5.3
2018-May-17 07:29N 39°53' W 075°12'1 1.7
2018-May-17 07:00N 39°52' W 075°12'0 0.0
2018-May-17 06:30N 39°52' W 075°12'0 0.0
2018-May-17 06:00N 39°52' W 075°12'0 0.0
2018-May-17 05:30N 39°52' W 075°12'0 0.0
2018-May-17 05:00N 39°52' W 075°12'0 0.0
2018-May-17 04:27N 39°52' W 075°12'0 0.0
2018-May-17 04:00N 39°52' W 075°12'0 0.1
2018-May-17 03:30N 39°52' W 075°12'0 0.1
2018-May-17 03:00N 39°52' W 075°12'0 0.2
2018-May-17 02:30N 39°52' W 075°13'0 0.1
2018-May-17 01:57N 39°52' W 075°13'0 0.1
2018-May-17 01:30N 39°52' W 075°13'0 0.0
2018-May-17 01:00N 39°52' W 075°13'0 0.0
2018-May-17 00:30N 39°52' W 075°13'0 0.0
2018-May-17 00:00N 39°52' W 075°13'0 0.0
2018-May-16 23:30N 39°52' W 075°13'0 0.0
2018-May-16 23:00N 39°52' W 075°13'0 0.0
2018-May-16 22:30N 39°52' W 075°13'0 0.0
2018-May-16 22:00N 39°52' W 075°13'0 0.0
2018-May-16 21:30N 39°52' W 075°13'0 0.0
2018-May-16 21:00N 39°52' W 075°13'0 0.0
2018-May-16 20:30N 39°52' W 075°13'0 0.0
2018-May-16 20:00N 39°52' W 075°13'0 0.2
2018-May-16 19:30N 39°52' W 075°13'0 0.2
2018-May-16 19:00N 39°52' W 075°12'0 0.0
2018-May-16 18:30N 39°52' W 075°12'0 0.0
2018-May-16 18:00N 39°52' W 075°12'0 0.0
2018-May-16 17:30N 39°52' W 075°12'0 0.0
2018-May-16 17:00N 39°52' W 075°12'1 1.8
2018-May-16 16:30N 39°53' W 075°12'1 1.8
2018-May-16 16:00N 39°52' W 075°12'0 0.1
2018-May-16 15:29N 39°52' W 075°12'0 0.1
2018-May-16 14:59N 39°52' W 075°12'0 0.3
2018-May-16 14:29N 39°52' W 075°13'0 0.0
2018-May-16 13:59N 39°52' W 075°13'0 0.0
2018-May-16 13:29N 39°52' W 075°13'0 0.0
2018-May-16 12:59N 39°52' W 075°13'0 0.0
2018-May-16 12:29N 39°52' W 075°13'0 0.0
2018-May-16 11:59N 39°52' W 075°13'0 0.0
2018-May-16 11:29N 39°52' W 075°13'0 0.0
2018-May-16 10:56N 39°52' W 075°13'0 0.0
2018-May-16 10:29N 39°52' W 075°13'0 0.0
2018-May-16 09:59N 39°52' W 075°13'0 0.0
2018-May-16 09:29N 39°52' W 075°13'0 0.0
2018-May-16 08:59N 39°52' W 075°13'0 0.0
2018-May-16 08:29N 39°52' W 075°13'0 0.1
2018-May-16 07:59N 39°52' W 075°13'0 0.3
2018-May-16 07:29N 39°52' W 075°12'0 0.1
2018-May-16 06:59N 39°52' W 075°12'0 0.0
2018-May-16 06:29N 39°52' W 075°12'0 0.0
2018-May-16 05:59N 39°52' W 075°12'0 0.0
2018-May-16 05:26N 39°52' W 075°12'0 0.0
2018-May-16 04:59N 39°52' W 075°12'0 0.0
2018-May-16 04:29N 39°52' W 075°12'0 0.0
2018-May-16 03:59N 39°52' W 075°12'0 0.0
2018-May-16 03:29N 39°52' W 075°12'0 0.0
2018-May-16 02:59N 39°52' W 075°12'0 0.0
2018-May-16 02:29N 39°52' W 075°12'0 0.0
2018-May-16 01:59N 39°52' W 075°12'0 0.3
2018-May-16 01:29N 39°52' W 075°13'0 0.1
2018-May-16 00:59N 39°52' W 075°13'0 0.1
2018-May-16 00:29N 39°52' W 075°13'0 0.1
2018-May-15 23:59N 39°52' W 075°13'0 0.1
2018-May-15 23:29N 39°52' W 075°13'0 0.2
2018-May-15 22:59N 39°52' W 075°12'0 0.2
2018-May-15 22:29N 39°52' W 075°12'0 0.3
2018-May-15 21:59N 39°52' W 075°13'0 0.1
2018-May-15 21:29N 39°52' W 075°13'0 0.0
2018-May-15 20:59N 39°52' W 075°13'0 0.1
2018-May-15 20:29N 39°52' W 075°13'0 0.2
2018-May-15 19:59N 39°52' W 075°12'0 0.0
2018-May-15 19:29N 39°52' W 075°12'0 0.1
2018-May-15 18:56N 39°52' W 075°12'0 0.1
2018-May-15 18:29N 39°52' W 075°12'0 0.1
2018-May-15 17:56N 39°52' W 075°12'0 0.0
2018-May-15 17:29N 39°52' W 075°12'0 0.1
2018-May-15 16:59N 39°52' W 075°12'0 0.1
2018-May-15 16:29N 39°52' W 075°12'0 0.1
2018-May-15 15:59N 39°52' W 075°12'0 0.1
2018-May-15 15:29N 39°52' W 075°12'0 0.0
2018-May-15 14:59N 39°52' W 075°12'0 0.0
2018-May-15 14:29N 39°52' W 075°12'0 0.0
2018-May-15 13:59N 39°52' W 075°12'0 0.0
2018-May-15 13:29N 39°52' W 075°12'0 0.3
2018-May-15 12:59N 39°52' W 075°13'0 0.1
2018-May-15 12:26N 39°52' W 075°13'0 0.1
2018-May-15 11:58N 39°52' W 075°13'0 0.0
2018-May-15 11:26N 39°52' W 075°13'0 0.0
2018-May-15 10:59N 39°52' W 075°13'0 0.0
2018-May-15 10:30N 39°52' W 075°13'0 0.0
2018-May-15 09:59N 39°52' W 075°13'0 0.0
2018-May-15 09:30N 39°52' W 075°13'0 0.0
2018-May-15 08:59N 39°52' W 075°13'0 0.0
2018-May-15 08:30N 39°52' W 075°13'0 0.0
2018-May-15 08:00N 39°52' W 075°13'0 0.1
2018-May-15 07:29N 39°52' W 075°13'0 0.2
2018-May-15 06:59N 39°52' W 075°13'0 0.1
2018-May-15 06:29N 39°52' W 075°12'0 0.0
2018-May-15 05:59N 39°52' W 075°12'0 0.0
2018-May-15 05:29N 39°52' W 075°12'0 0.0
2018-May-15 04:59N 39°52' W 075°12'0 0.0
2018-May-15 04:29N 39°52' W 075°12'0 0.0
2018-May-15 03:59N 39°52' W 075°12'0 0.0
2018-May-15 03:29N 39°52' W 075°12'0 0.0
2018-May-15 02:59N 39°52' W 075°12'0 0.0
2018-May-15 02:29N 39°52' W 075°12'0 0.0
2018-May-15 01:59N 39°52' W 075°12'0 0.0
2018-May-15 01:29N 39°52' W 075°12'0 0.2
2018-May-15 00:59N 39°52' W 075°13'0 0.2
2018-May-15 00:29N 39°52' W 075°13'0 0.1
2018-May-14 23:59N 39°52' W 075°13'0 0.0
2018-May-14 23:29N 39°52' W 075°13'0 0.1
2018-May-14 22:59N 39°52' W 075°13'0 0.0
2018-May-14 22:29N 39°52' W 075°13'0 0.0
2018-May-14 21:59N 39°52' W 075°13'0 0.0
2018-May-14 21:29N 39°52' W 075°13'0 0.1
2018-May-14 20:59N 39°52' W 075°13'0 0.0
2018-May-14 20:29N 39°52' W 075°13'0 0.0
2018-May-14 19:59N 39°52' W 075°13'0 0.0
2018-May-14 19:29N 39°52' W 075°13'0 0.1
2018-May-14 18:59N 39°52' W 075°13'0 0.3
2018-May-14 18:29N 39°52' W 075°12'0 0.1
2018-May-14 17:59N 39°52' W 075°12'0 0.0
2018-May-14 17:29N 39°52' W 075°12'0 0.0
2018-May-14 16:59N 39°52' W 075°12'0 0.0
2018-May-14 16:29N 39°52' W 075°12'0 0.0
2018-May-14 15:59N 39°52' W 075°12'0 0.0
2018-May-14 15:29N 39°52' W 075°12'0 0.0
2018-May-14 14:59N 39°52' W 075°12'0 0.0
2018-May-14 14:29N 39°52' W 075°12'0 0.0
2018-May-14 13:59N 39°52' W 075°12'0 0.0
2018-May-14 13:29N 39°52' W 075°12'0 0.3
2018-May-14 12:59N 39°52' W 075°13'0 0.1
2018-May-14 11:47N 39°52' W 075°13'0 0.0
2018-May-14 11:26N 39°52' W 075°13'0 0.0
2018-May-14 10:02N 39°52' W 075°13'0 0.0
2018-May-14 07:44N 39°52' W 075°13'0 0.0
2018-May-14 07:26N 39°52' W 075°13'0 0.0
2018-May-14 06:56N 39°52' W 075°13'0 0.1
2018-May-14 00:42N 39°52' W 075°13'  

Dump ship's entire track history